Time;durP1;ratioP1;P1;durP2;ratioP2;P2;SDS_P1;SDS_P2;PMS_P1;PMS_P2;Temp;Humidity;BMP_temperature;BMP_pressure;BME280_temperature;BME280_humidity;BME280_pressure;Samples;Min_cycle;Max_cycle;Signal;HPM_P1;HPM_P2
2022/01/12 00:02:12;;;;;;;;;26.00;23.50;;;;;19.58;35.58;103226.78;5066748;27;51150;-49
2022/01/12 00:04:38;;;;;;;;;28.50;24.50;;;;;19.57;35.69;103225.06;5065274;28;51389;-41
2022/01/12 00:07:03;;;;;;;;;25.00;23.25;;;;;19.56;35.63;103216.97;5074529;28;50996;-43
2022/01/12 00:09:29;;;;;;;;;27.00;23.25;;;;;19.54;35.56;103219.00;5068821;28;51050;-44
2022/01/12 00:11:54;;;;;;;;;26.50;23.25;;;;;19.53;35.48;103212.63;5065049;28;51076;-43
2022/01/12 00:14:19;;;;;;;;;26.25;23.00;;;;;19.52;35.77;103216.41;5064497;28;51051;-44
2022/01/12 00:16:48;;;;;;;;;27.50;23.75;;;;;19.49;35.84;103208.50;5073861;28;51182;-46
2022/01/12 00:19:14;;;;;;;;;23.75;23.00;;;;;19.48;35.75;103209.47;5081520;27;52581;-42
2022/01/12 00:21:40;;;;;;;;;27.75;23.50;;;;;19.47;35.61;103210.50;5068201;28;51087;-47
2022/01/12 00:24:07;;;;;;;;;19.25;18.50;;;;;19.45;35.72;103215.31;5064424;28;51069;-44
2022/01/12 00:34:27;;;;;;;;;27.25;24.00;;;;;19.45;35.86;103234.53;5069739;28;51181;-42
2022/01/12 00:36:52;;;;;;;;;27.75;20.00;;;;;19.45;36.07;103231.78;5067400;28;51163;-43
2022/01/12 00:39:18;;;;;;;;;24.50;20.50;;;;;19.43;35.88;103227.50;5064722;27;51309;-41
2022/01/12 00:41:43;;;;;;;;;19.75;19.75;;;;;19.42;35.98;103223.88;5064711;28;51145;-45
2022/01/12 00:44:10;;;;;;;;;26.00;20.50;;;;;19.42;35.98;103226.63;5067012;28;51330;-42
2022/01/12 00:46:39;;;;;;;;;25.00;19.75;;;;;19.39;35.81;103223.34;5067256;27;51382;-41
2022/01/12 00:49:05;;;;;;;;;25.00;22.75;;;;;19.38;35.80;103233.44;5059588;28;51142;-42
2022/01/12 00:51:33;;;;;;;;;26.25;21.50;;;;;19.36;35.73;103235.47;5068446;28;51118;-43
2022/01/12 00:54:01;;;;;;;;;21.50;20.00;;;;;19.35;35.77;103242.00;5066516;27;51276;-43
2022/01/12 00:56:27;;;;;;;;;22.50;20.50;;;;;19.33;35.87;103244.06;5064922;28;51282;-44
2022/01/12 00:58:53;;;;;;;;;27.00;25.25;;;;;19.32;35.75;103250.56;5069493;28;51714;-42
2022/01/12 01:01:21;;;;;;;;;24.00;19.75;;;;;19.31;35.85;103257.09;5071278;28;51056;-44
2022/01/12 01:03:48;;;;;;;;;25.50;23.50;;;;;19.30;35.74;103247.13;5058963;28;51240;-44
2022/01/12 01:06:14;;;;;;;;;29.00;24.75;;;;;19.28;35.81;103246.44;5064557;28;51453;-41
2022/01/12 01:08:40;;;;;;;;;27.75;21.75;;;;;19.27;35.94;103267.50;5069526;28;50992;-44
2022/01/12 01:11:06;;;;;;;;;21.25;18.25;;;;;19.27;35.54;103269.41;5064356;27;50900;-41
2022/01/12 01:13:45;;;;;;;;;22.50;21.00;;;;;19.25;35.83;103272.31;5068057;28;51240;-41
2022/01/12 01:16:24;;;;;;;;;21.00;17.25;;;;;19.24;35.92;103270.59;5072003;28;51114;-47
2022/01/12 01:27:01;;;;;;;;;23.25;20.25;;;;;19.19;35.94;103281.19;5067658;27;51034;-47
2022/01/12 01:29:27;;;;;;;;;24.25;22.00;;;;;19.19;35.80;103296.81;5061021;28;51811;-46
2022/01/12 01:31:53;;;;;;;;;28.50;23.50;;;;;19.18;35.76;103295.09;5064254;28;51246;-40
2022/01/12 01:34:18;;;;;;;;;25.25;23.00;;;;;19.17;35.91;103296.09;5065280;28;51244;-47
2022/01/12 01:36:47;;;;;;;;;22.25;21.00;;;;;19.16;35.96;103300.72;5069179;28;51231;-42
2022/01/12 01:39:15;;;;;;;;;27.00;21.00;;;;;19.15;35.65;103307.22;5059413;28;51582;-42
2022/01/12 01:41:44;;;;;;;;;24.00;21.75;;;;;19.14;35.88;103304.66;5064162;28;51303;-42
2022/01/12 01:54:45;;;;;;;;;24.75;23.50;;;;;19.09;36.01;103305.13;5063860;28;51139;-42
2022/01/12 01:57:11;;;;;;;;;26.50;25.25;;;;;19.08;36.02;103303.41;5063532;28;50936;-41
2022/01/12 01:59:36;;;;;;;;;23.75;19.75;;;;;19.08;35.78;103300.66;5066065;28;51871;-41
2022/01/12 02:02:02;;;;;;;;;22.50;21.25;;;;;19.07;36.01;103303.53;5063447;28;51319;-42
2022/01/12 02:04:27;;;;;;;;;23.50;21.00;;;;;19.07;35.88;103312.66;5065607;28;50911;-46
2022/01/12 02:06:54;;;;;;;;;22.25;22.25;;;;;19.06;36.00;103304.53;5059562;28;51398;-43
2022/01/12 02:09:20;;;;;;;;;20.75;20.00;;;;;19.05;35.91;103306.44;5068174;28;51834;-46
2022/01/12 02:11:50;;;;;;;;;24.00;18.75;;;;;19.03;35.93;103300.22;5062909;28;51118;-41
2022/01/12 02:14:16;;;;;;;;;20.75;20.50;;;;;19.03;36.10;103300.22;5063544;28;51243;-42
2022/01/12 02:16:53;;;;;;;;;24.25;19.25;;;;;19.02;35.91;103299.38;5063681;28;50952;-42
2022/01/12 02:35:51;;;;;;;;;21.50;18.50;;;;;18.96;36.22;103297.22;5064636;28;51259;-42
2022/01/12 02:41:05;;;;;;;;;27.25;19.75;;;;;18.94;35.92;103282.78;5066207;28;51412;-42
2022/01/12 02:53:39;;;;;;;;;20.00;18.00;;;;;18.91;36.17;103260.25;5063124;28;51136;-46
2022/01/12 02:54:41;;;;;;;;;24.00;20.75;;;;;18.91;36.02;103261.13;5063538;28;51243;-44
2022/01/12 02:57:07;;;;;;;;;22.00;19.25;;;;;18.90;36.17;103253.91;5063654;28;51266;-42
2022/01/12 02:59:32;;;;;;;;;28.50;21.75;;;;;18.90;36.07;103247.56;5065802;28;51224;-40
2022/01/12 03:04:49;;;;;;;;;29.75;22.75;;;;;18.88;36.24;103253.19;5066004;28;51528;-45
2022/01/12 03:07:16;;;;;;;;;29.00;25.25;;;;;18.87;36.20;103256.97;5064378;28;51298;-44
2022/01/12 03:09:42;;;;;;;;;23.50;19.25;;;;;18.87;36.09;103265.22;5064220;28;51321;-46
2022/01/12 03:12:07;;;;;;;;;20.25;17.50;;;;;18.87;36.13;103273.44;5070272;28;51135;-45
2022/01/12 03:14:33;;;;;;;;;27.00;22.25;;;;;18.86;36.18;103271.72;5066078;28;51081;-41
2022/01/12 03:16:58;;;;;;;;;24.75;22.25;;;;;18.86;36.19;103285.44;5063725;28;51358;-41
2022/01/12 03:19:23;;;;;;;;;20.00;19.25;;;;;18.85;36.26;103289.19;5061879;28;51897;-44
2022/01/12 03:21:49;;;;;;;;;27.50;24.25;;;;;18.85;36.33;103300.16;5073592;28;52113;-45
2022/01/12 03:24:14;;;;;;;;;24.75;23.00;;;;;18.84;36.42;103294.84;5069161;28;50982;-43
2022/01/12 03:26:40;;;;;;;;;26.00;22.50;;;;;18.85;36.23;103296.56;5068672;27;51151;-41
2022/01/12 03:29:06;;;;;;;;;23.75;20.00;;;;;18.84;36.46;103292.94;5071800;28;51071;-44
2022/01/12 03:31:34;;;;;;;;;26.25;24.25;;;;;18.84;36.36;103292.09;5066766;28;51018;-41
2022/01/12 03:39:40;;;;;;;;;28.75;24.00;;;;;18.81;36.30;103293.28;5068043;28;51284;-44
2022/01/12 03:42:06;;;;;;;;;21.25;18.00;;;;;18.81;36.15;103307.00;5070163;28;51144;-44
2022/01/12 03:44:31;;;;;;;;;21.75;19.75;;;;;18.79;36.17;103303.53;5074170;28;51022;-41
2022/01/12 03:46:56;;;;;;;;;26.00;20.25;;;;;18.78;36.40;103299.06;5067903;28;51149;-43
2022/01/12 03:49:22;;;;;;;;;24.00;21.50;;;;;18.78;36.16;103293.59;5064513;28;51046;-41
2022/01/12 03:51:48;;;;;;;;;23.25;23.00;;;;;18.78;36.34;103295.47;5065868;28;51745;-48
2022/01/12 03:54:16;;;;;;;;;22.75;21.50;;;;;18.76;36.13;103306.59;5066240;28;51316;-45
2022/01/12 03:56:41;;;;;;;;;25.75;21.50;;;;;18.75;36.24;103311.19;5067799;28;51350;-42
2022/01/12 03:59:07;;;;;;;;;21.75;20.25;;;;;18.75;36.23;103310.34;5071661;28;51255;-45
2022/01/12 04:01:35;;;;;;;;;22.75;20.00;;;;;18.74;36.38;103314.97;5065066;28;51462;-47
2022/01/12 04:04:02;;;;;;;;;23.75;19.00;;;;;18.73;36.46;103329.72;5064965;28;51092;-44
2022/01/12 04:09:25;;;;;;;;;27.25;22.00;;;;;18.74;36.28;103328.69;5035784;28;51094;-47
2022/01/12 04:11:51;;;;;;;;;27.50;23.25;;;;;18.75;36.32;103341.41;5065988;28;51792;-45
2022/01/12 04:14:16;;;;;;;;;25.75;22.75;;;;;18.74;36.34;103342.41;5064889;28;51120;-45
2022/01/12 04:16:42;;;;;;;;;22.25;21.25;;;;;18.73;36.55;103348.06;5068549;28;51264;-42
2022/01/12 04:19:07;;;;;;;;;23.75;20.75;;;;;18.72;36.47;103352.69;5067172;28;51404;-43
2022/01/12 04:21:40;;;;;;;;;25.00;21.50;;;;;18.71;36.25;103361.97;5065081;28;51851;-44
2022/01/12 04:24:06;;;;;;;;;23.50;20.25;;;;;18.71;36.25;103366.59;5065947;28;51229;-48
2022/01/12 04:26:31;;;;;;;;;19.50;16.25;;;;;18.71;36.42;103361.97;5067908;27;51166;-42
2022/01/12 04:28:57;;;;;;;;;20.75;18.00;;;;;18.70;36.43;103356.63;5067509;28;51091;-44
2022/01/12 04:31:22;;;;;;;;;21.25;18.00;;;;;18.69;36.48;103368.63;5064820;28;51670;-45
2022/01/12 04:33:47;;;;;;;;;25.25;22.25;;;;;18.69;36.23;103371.38;5067540;28;51183;-44
2022/01/12 04:36:14;;;;;;;;;23.50;21.25;;;;;18.67;36.12;103377.00;5065681;28;51016;-42
2022/01/12 04:38:42;;;;;;;;;27.25;21.25;;;;;18.67;36.26;103378.88;5069389;28;51255;-43
2022/01/12 04:41:09;;;;;;;;;21.75;19.00;;;;;18.65;36.30;103380.91;5068093;28;51979;-46
2022/01/12 04:43:38;;;;;;;;;25.00;23.00;;;;;18.65;36.37;103380.91;5065049;28;51376;-40
2022/01/12 04:48:38;;;;;;;;;19.25;19.25;;;;;18.64;36.21;103387.38;5066597;28;51180;-46
2022/01/12 04:51:04;;;;;;;;;21.25;21.25;;;;;18.63;36.27;103386.50;5065086;28;51969;-44
2022/01/12 04:53:33;;;;;;;;;22.25;19.50;;;;;18.63;36.42;103385.63;5065089;28;51201;-44
2022/01/12 04:55:58;;;;;;;;;27.25;21.75;;;;;18.62;36.52;103389.41;5067367;28;50984;-44
2022/01/12 04:58:25;;;;;;;;;32.75;29.25;;;;;18.60;36.56;103389.56;5065082;28;51117;-44
2022/01/12 05:00:52;;;;;;;;;37.00;31.50;;;;;18.61;35.77;103384.94;5065612;27;51049;-42
2022/01/12 05:13:58;;;;;;;;;48.00;38.75;;;;;18.41;33.86;103417.91;5064666;28;51575;-43
2022/01/12 05:16:25;;;;;;;;;40.50;32.25;;;;;18.36;33.71;103412.00;5071025;27;51163;-41
2022/01/12 05:18:52;;;;;;;;;47.25;37.75;;;;;18.31;33.63;103411.56;5066102;28;51636;-42
2022/01/12 05:21:20;;;;;;;;;50.75;37.50;;;;;18.26;33.42;103408.41;5064148;28;52209;-44
2022/01/12 05:23:46;;;;;;;;;39.50;33.50;;;;;18.20;33.35;103410.84;5064579;28;51596;-41
2022/01/12 05:26:12;;;;;;;;;51.75;37.75;;;;;18.16;33.03;103410.28;5067682;27;51545;-44
2022/01/12 05:28:38;;;;;;;;;41.25;36.00;;;;;18.12;33.15;103395.13;5059887;28;51030;-43
2022/01/12 05:31:05;;;;;;;;;49.50;37.00;;;;;18.07;32.85;103397.44;5064810;28;52755;-43
2022/01/12 05:33:31;;;;;;;;;53.75;38.00;;;;;18.00;33.02;103391.66;5060641;28;51072;-43
2022/01/12 05:35:58;;;;;;;;;47.75;39.75;;;;;17.97;32.96;103385.59;5067106;28;51146;-45
2022/01/12 05:38:24;;;;;;;;;51.00;37.75;;;;;17.91;32.63;103383.44;5066059;28;50997;-44
2022/01/12 05:40:55;;;;;;;;;48.75;37.50;;;;;17.85;32.90;103390.38;5067025;28;51854;-42
2022/01/12 05:43:25;;;;;;;;;42.50;36.75;;;;;17.80;32.94;103390.78;5064471;28;51056;-44
2022/01/12 05:45:52;;;;;;;;;51.50;37.25;;;;;17.76;32.60;103389.34;5070111;28;51081;-41
2022/01/12 05:50:46;;;;;;;;;47.75;35.25;;;;;17.71;33.17;103382.53;5061931;28;51896;-41
2022/01/12 05:53:12;;;;;;;;;46.75;35.75;;;;;17.72;33.30;103376.09;5065894;28;51451;-46
2022/01/12 05:55:37;;;;;;;;;42.75;32.75;;;;;17.77;33.42;103377.38;5064407;28;51192;-46
2022/01/12 05:58:03;;;;;;;;;44.50;34.75;;;;;17.88;33.10;103381.84;5065451;28;51109;-43
2022/01/12 06:00:29;;;;;;;;;37.00;32.50;;;;;17.96;33.38;103390.22;5061995;28;53502;-42
2022/01/12 06:02:55;;;;;;;;;31.75;27.75;;;;;18.07;33.66;103402.94;5063503;28;51042;-44
2022/01/12 06:05:22;;;;;;;;;29.50;25.00;;;;;18.17;33.62;103409.28;5068410;28;51161;-41
2022/01/12 06:07:49;;;;;;;;;35.25;30.25;;;;;18.28;33.52;103400.88;5066827;28;51460;-42
2022/01/12 06:10:15;;;;;;;;;29.50;26.25;;;;;18.38;33.87;103403.63;5063634;28;51104;-43
2022/01/12 06:12:41;;;;;;;;;28.75;23.50;;;;;18.46;34.09;103399.13;5066259;28;51040;-46
2022/01/12 06:15:07;;;;;;;;;27.00;23.00;;;;;18.56;34.08;103398.25;5065237;28;50978;-40
2022/01/12 06:17:34;;;;;;;;;29.75;24.00;;;;;18.64;34.41;103396.50;5068980;28;51292;-44
2022/01/12 06:20:00;;;;;;;;;23.50;21.25;;;;;18.72;34.18;103393.03;5062980;28;51800;-46
2022/01/12 06:22:25;;;;;;;;;31.75;26.75;;;;;18.81;34.33;103402.25;5066496;28;51110;-42
2022/01/12 06:24:52;;;;;;;;;27.50;23.75;;;;;18.87;34.65;103397.03;5073947;28;51398;-45
2022/01/12 06:27:20;;;;;;;;;26.75;20.00;;;;;18.93;34.35;103388.16;5065108;27;51315;-42
2022/01/12 06:31:10;;;;;;;;;22.75;20.25;;;;;19.01;34.80;103393.78;5062022;28;51813;-45
2022/01/12 06:32:34;;;;;;;;;25.25;21.25;;;;;19.08;34.54;103393.19;5067402;27;51210;-46
2022/01/12 06:34:59;;;;;;;;;25.00;23.00;;;;;19.14;34.50;103392.56;5067278;28;51182;-45
2022/01/12 06:37:24;;;;;;;;;22.75;17.50;;;;;19.21;34.72;103393.69;5078495;28;51026;-43
2022/01/12 06:39:50;;;;;;;;;26.50;18.00;;;;;19.28;34.47;103403.06;5071117;28;51910;-44
2022/01/12 06:42:16;;;;;;;;;24.50;20.00;;;;;19.32;35.43;103397.09;5082787;27;51120;-45
2022/01/12 06:44:41;;;;;;;;;18.25;17.50;;;;;19.40;35.41;103390.84;5067383;28;50969;-44
2022/01/12 06:47:07;;;;;;;;;25.25;17.00;;;;;19.46;35.16;103389.34;5066794;28;51032;-44
2022/01/12 06:49:32;;;;;;;;;20.50;16.75;;;;;19.53;35.44;103390.47;5065740;28;51199;-46
2022/01/12 06:52:01;;;;;;;;;18.00;15.50;;;;;19.58;35.93;103399.13;5068082;28;51112;-43
2022/01/12 06:54:27;;;;;;;;;19.50;16.00;;;;;19.64;35.79;103400.41;5069884;28;51103;-44
2022/01/12 06:56:52;;;;;;;;;19.75;16.00;;;;;19.68;36.12;103402.69;5069926;28;51037;-47
2022/01/12 06:59:18;;;;;;;;;19.75;13.00;;;;;19.74;35.95;103418.56;5061771;28;51172;-42
2022/01/12 07:01:44;;;;;;;;;19.75;15.75;;;;;19.79;35.93;103415.34;5069356;28;52422;-45
2022/01/12 07:04:10;;;;;;;;;21.25;16.25;;;;;19.83;35.72;103412.13;5069474;28;51088;-41
2022/01/12 07:06:36;;;;;;;;;12.25;12.25;;;;;19.87;35.94;103409.94;5067981;28;50988;-45
2022/01/12 07:09:05;;;;;;;;;11.50;7.50;;;;;19.92;35.82;103413.09;5066656;28;51909;-48
2022/01/12 07:11:30;;;;;;;;;16.50;15.00;;;;;19.98;36.05;103409.69;5066394;28;51454;-48
2022/01/12 07:13:56;;;;;;;;;17.25;13.00;;;;;20.03;36.01;103396.34;5065766;28;52459;-46
2022/01/12 07:16:21;;;;;;;;;15.25;13.75;;;;;20.09;35.89;103400.34;5069364;28;51250;-46
2022/01/12 07:18:47;;;;;;;;;19.75;16.75;;;;;20.14;36.09;103393.34;5071092;28;51185;-47
2022/01/12 07:21:12;;;;;;;;;18.75;14.25;;;;;20.19;35.76;103396.47;5066036;28;51029;-44
2022/01/12 07:23:37;;;;;;;;;18.00;16.00;;;;;20.25;36.14;103385.88;5076048;28;51182;-45
2022/01/12 07:26:03;;;;;;;;;19.50;14.00;;;;;20.29;35.79;103387.25;5070937;27;51181;-44
2022/01/12 07:28:28;;;;;;;;;19.25;13.25;;;;;20.33;35.68;103386.78;5068300;27;51711;-43
2022/01/12 07:30:53;;;;;;;;;12.25;11.50;;;;;20.38;35.90;103391.81;5071679;28;51693;-49
2022/01/12 07:33:20;;;;;;;;;17.00;14.75;;;;;20.43;35.39;103392.25;5067170;28;51210;-46
2022/01/12 07:35:46;;;;;;;;;17.50;14.50;;;;;20.46;35.76;103406.53;5068680;28;51032;-45
2022/01/12 07:38:12;;;;;;;;;18.50;16.50;;;;;20.52;35.82;103412.41;5075321;28;51946;-43
2022/01/12 07:40:37;;;;;;;;;18.50;14.75;;;;;20.56;35.79;103409.19;5075267;27;51151;-47
2022/01/12 07:43:03;;;;;;;;;16.50;14.25;;;;;20.61;35.51;103423.31;5078387;28;51028;-43
2022/01/12 07:45:29;;;;;;;;;17.25;15.25;;;;;20.64;35.73;103425.78;5059880;27;51518;-48
2022/01/12 07:47:54;;;;;;;;;14.50;12.25;;;;;20.69;35.41;103436.31;5057140;28;51396;-45
2022/01/12 07:50:20;;;;;;;;;21.25;14.50;;;;;20.73;35.48;103435.81;5057862;28;51129;-45
2022/01/12 07:52:45;;;;;;;;;19.00;17.00;;;;;20.78;35.38;103446.34;5057812;28;51052;-45
2022/01/12 07:55:11;;;;;;;;;22.75;18.75;;;;;20.82;34.70;103450.50;5058108;28;50971;-44
2022/01/12 07:57:36;;;;;;;;;17.75;16.00;;;;;20.89;34.86;103454.34;5057685;28;52093;-44
2022/01/12 08:00:04;;;;;;;;;18.50;14.25;;;;;20.96;34.86;103457.31;5057304;28;51034;-45
2022/01/12 08:02:29;;;;;;;;;17.75;14.50;;;;;21.03;34.99;103455.63;5057295;27;51106;-46
2022/01/12 08:04:54;;;;;;;;;17.25;14.00;;;;;21.09;34.51;103451.34;5057918;28;51060;-46
2022/01/12 08:07:20;;;;;;;;;18.00;17.00;;;;;21.15;34.81;103458.97;5057268;28;51035;-46
2022/01/12 08:09:45;;;;;;;;;20.25;16.75;;;;;21.20;34.37;103462.09;5057256;28;51016;-47
2022/01/12 08:12:11;;;;;;;;;19.75;15.50;;;;;21.26;34.40;103467.00;5057519;28;51053;-49
2022/01/12 08:14:37;;;;;;;;;16.00;14.50;;;;;21.31;34.60;103482.00;5058824;28;51236;-47
2022/01/12 08:17:02;;;;;;;;;19.50;17.75;;;;;21.33;34.23;103479.94;5067962;28;51799;-48
2022/01/12 08:19:29;;;;;;;;;18.50;15.75;;;;;21.36;34.58;103488.91;5057158;28;51115;-50
2022/01/12 08:21:55;;;;;;;;;20.25;17.00;;;;;21.40;34.00;103501.34;5072554;28;51024;-46
2022/01/12 08:24:20;;;;;;;;;18.50;15.75;;;;;21.41;34.29;103509.47;5077827;27;51231;-45
2022/01/12 08:26:46;;;;;;;;;23.50;21.75;;;;;21.41;34.06;103514.09;5073293;27;51878;-44
2022/01/12 08:29:14;;;;;;;;;26.75;20.75;;;;;21.39;33.71;103503.25;5097704;27;51280;-46
2022/01/12 08:31:42;;;;;;;;;23.75;20.50;;;;;21.38;33.98;103511.69;5097487;27;51181;-48
2022/01/12 08:34:08;;;;;;;;;19.75;19.75;;;;;21.34;33.91;103511.13;5097921;27;51012;-47
2022/01/12 08:36:33;;;;;;;;;23.00;19.75;;;;;21.29;33.57;103522.66;5097620;27;51905;-48
2022/01/12 08:39:01;;;;;;;;;43.25;36.75;;;;;21.22;32.73;103529.81;5096989;27;51174;-47
2022/01/12 08:41:27;;;;;;;;;40.75;34.25;;;;;21.09;32.10;103515.63;5097611;27;51148;-44
2022/01/12 08:43:52;;;;;;;;;41.00;31.25;;;;;20.95;31.88;103524.50;5096232;27;50997;-47
2022/01/12 08:46:17;;;;;;;;;41.50;30.50;;;;;20.85;32.45;103529.22;5097320;27;51122;-42
2022/01/12 08:48:43;;;;;;;;;39.25;31.00;;;;;20.75;32.46;103530.19;5097480;27;51047;-47
2022/01/12 08:51:08;;;;;;;;;34.50;30.25;;;;;20.66;32.41;103525.63;5097338;27;50961;-44
2022/01/12 08:53:34;;;;;;;;;37.00;30.50;;;;;20.60;32.54;103528.16;5096396;27;51384;-47
2022/01/12 08:56:00;;;;;;;;;34.75;30.50;;;;;20.51;32.84;103529.94;5097045;27;51172;-47
2022/01/12 08:58:25;;;;;;;;;34.00;29.00;;;;;20.44;32.96;103535.25;5097297;27;51087;-49
2022/01/12 09:00:51;;;;;;;;;35.00;27.75;;;;;20.39;33.00;103536.69;5096922;27;51196;-47
2022/01/12 09:03:16;;;;;;;;;36.50;30.00;;;;;20.33;32.98;103531.84;5097139;27;50937;-44
2022/01/12 09:05:41;;;;;;;;;34.00;30.50;;;;;20.28;33.11;103539.69;5097083;27;52073;-47
2022/01/12 09:08:07;;;;;;;;;34.75;31.75;;;;;20.22;33.17;103545.78;5097038;27;51127;-44
2022/01/12 09:10:33;;;;;;;;;32.25;26.75;;;;;20.16;33.14;103550.91;5090649;27;51622;-46
2022/01/12 09:12:59;;;;;;;;;30.00;29.00;;;;;20.11;33.24;103556.03;5057705;28;50975;-44
2022/01/12 09:15:25;;;;;;;;;35.50;29.50;;;;;20.06;33.17;103557.50;5063260;27;51951;-47
2022/01/12 09:17:56;;;;;;;;;38.75;32.75;;;;;20.01;33.60;103557.09;5055866;28;51025;-44
2022/01/12 09:20:22;;;;;;;;;30.00;28.50;;;;;19.96;33.71;103559.44;5056219;27;51183;-50
2022/01/12 09:22:49;;;;;;;;;38.25;27.75;;;;;19.93;33.38;103565.25;5056620;28;51166;-44
2022/01/12 09:25:14;;;;;;;;;31.00;28.25;;;;;19.87;33.77;103578.59;5056836;28;51750;-44
2022/01/12 09:27:40;;;;;;;;;35.00;28.00;;;;;19.83;33.78;103588.19;5087356;27;50958;-44
2022/01/12 09:30:11;;;;;;;;;31.75;30.00;;;;;19.79;33.75;103589.47;5096866;27;51373;-44
2022/01/12 09:32:37;;;;;;;;;33.50;30.25;;;;;19.76;33.97;103598.06;5097219;27;51064;-45
2022/01/12 09:35:05;;;;;;;;;32.75;29.00;;;;;19.74;33.89;103607.47;5096391;27;52195;-47
2022/01/12 09:37:31;;;;;;;;;39.00;32.25;;;;;19.71;33.62;103616.91;5096552;27;51421;-42
2022/01/12 09:39:56;;;;;;;;;49.75;38.50;;;;;19.70;34.16;103625.31;5088130;27;51107;-44
2022/01/12 09:42:22;;;;;;;;;47.50;34.00;;;;;19.67;34.26;103620.94;5056022;28;51365;-46
2022/01/12 09:44:48;;;;;;;;;46.00;36.50;;;;;19.65;34.04;103631.25;5059220;28;50977;-47
2022/01/12 09:47:16;;;;;;;;;44.25;34.25;;;;;19.64;34.49;103624.00;5064006;28;51422;-42
2022/01/12 09:49:43;;;;;;;;;47.25;34.75;;;;;19.63;34.25;103626.91;5082276;27;51189;-43
2022/01/12 09:52:08;;;;;;;;;47.25;34.50;;;;;19.62;34.57;103631.56;5077230;27;51110;-43
2022/01/12 09:54:34;;;;;;;;;31.75;25.00;;;;;19.59;34.78;103629.97;5074894;27;51087;-42
2022/01/12 09:57:00;;;;;;;;;51.25;40.25;;;;;19.60;35.17;103622.59;5075723;27;51089;-44
2022/01/12 09:59:26;;;;;;;;;44.50;36.75;;;;;19.61;35.35;103638.06;5062786;27;51210;-47
2022/01/12 10:01:54;;;;;;;;;42.50;35.75;;;;;19.59;35.40;103631.81;5055411;28;51220;-43
2022/01/12 10:04:22;;;;;;;;;48.00;38.00;;;;;19.59;35.38;103634.56;5054778;28;52922;-44
2022/01/12 10:06:53;;;;;;;;;50.75;40.00;;;;;19.56;35.78;103624.75;5054161;28;51054;-46
2022/01/12 10:09:25;;;;;;;;;40.00;34.25;;;;;19.56;35.77;103624.75;5055531;28;51077;-45
2022/01/12 10:11:53;;;;;;;;;41.00;34.25;;;;;19.54;35.83;103624.00;5073233;28;51502;-44
2022/01/12 10:14:18;;;;;;;;;42.50;33.50;;;;;19.54;36.19;103624.00;5075566;28;52778;-47
2022/01/12 10:16:53;;;;;;;;;38.50;31.75;;;;;19.54;36.38;103625.88;5074896;28;51047;-44
2022/01/12 10:19:29;;;;;;;;;43.50;34.25;;;;;19.54;36.50;103625.88;5075839;28;51068;-47
2022/01/12 10:21:57;;;;;;;;;40.25;33.50;;;;;19.55;37.08;103623.03;5073780;28;51051;-44
2022/01/12 10:24:24;;;;;;;;;35.50;32.00;;;;;19.60;37.10;103620.72;5073723;28;52831;-42
2022/01/12 10:26:51;;;;;;;;;36.75;31.00;;;;;19.68;36.85;103621.81;5067212;27;51383;-46
2022/01/12 10:29:19;;;;;;;;;40.50;32.25;;;;;19.74;37.12;103622.09;5073399;27;51250;-46
2022/01/12 10:31:49;;;;;;;;;35.75;31.75;;;;;19.83;36.73;103625.81;5059113;27;50962;-53
2022/01/12 10:34:16;;;;;;;;;35.25;31.00;;;;;19.90;36.89;103624.19;5066398;28;52174;-47
2022/01/12 10:36:44;;;;;;;;;31.50;27.75;;;;;19.97;36.84;103628.06;5055474;28;51163;-45
2022/01/12 10:39:12;;;;;;;;;27.25;23.50;;;;;20.04;36.70;103629.19;5061242;28;51065;-43
2022/01/12 10:41:51;;;;;;;;;31.75;27.75;;;;;20.08;37.31;103619.63;5079940;27;51168;-49
2022/01/12 10:44:26;;;;;;;;;30.25;28.00;;;;;20.17;37.27;103628.84;5057443;28;51914;-44
2022/01/12 10:47:04;;;;;;;;;29.00;25.00;;;;;20.22;37.42;103625.63;5061328;28;51406;-42
2022/01/12 10:49:30;;;;;;;;;32.25;26.00;;;;;20.28;38.29;103612.09;5069737;28;51052;-46
2022/01/12 10:51:56;;;;;;;;;40.50;31.75;;;;;20.36;38.11;103622.34;5074944;28;51364;-41
2022/01/12 10:54:23;;;;;;;;;33.50;29.00;;;;;20.42;38.36;103611.59;5075239;28;51938;-45
2022/01/12 10:56:48;;;;;;;;;41.25;31.00;;;;;20.49;38.52;103616.50;5061780;28;51452;-45
2022/01/12 10:59:20;;;;;;;;;32.25;24.00;;;;;20.55;38.04;103616.75;5075243;27;51199;-42
2022/01/12 11:01:47;;;;;;;;;33.00;28.00;;;;;20.59;37.86;103623.66;5074049;27;50963;-44
2022/01/12 11:04:13;;;;;;;;;30.25;25.25;;;;;20.63;37.63;103625.06;5072664;28;51166;-40
2022/01/12 11:06:39;;;;;;;;;30.50;22.75;;;;;20.68;37.38;103624.63;5074153;28;51642;-45
2022/01/12 11:09:05;;;;;;;;;26.50;24.25;;;;;20.72;37.03;103634.28;5063033;28;51132;-46
2022/01/12 11:11:30;;;;;;;;;30.00;24.75;;;;;20.77;36.98;103636.59;5055531;28;51158;-41
2022/01/12 11:13:56;;;;;;;;;27.00;23.25;;;;;20.81;36.77;103632.50;5053901;28;51801;-44
2022/01/12 11:16:23;;;;;;;;;28.50;25.75;;;;;20.84;37.14;103634.91;5054521;27;51167;-43
2022/01/12 11:18:49;;;;;;;;;29.75;24.25;;;;;20.88;36.91;103631.72;5076924;28;51094;-42
2022/01/12 11:21:20;;;;;;;;;31.75;27.75;;;;;20.93;37.32;103632.09;5076445;28;51241;-47
2022/01/12 11:23:46;;;;;;;;;27.50;23.00;;;;;20.98;37.11;103628.88;5077693;28;51139;-41
2022/01/12 11:26:14;;;;;;;;;29.50;26.25;;;;;21.02;37.10;103624.75;5075025;27;51385;-45
2022/01/12 11:28:40;;;;;;;;;28.25;24.25;;;;;21.06;37.41;103626.19;5068430;27;52306;-45
2022/01/12 11:31:05;;;;;;;;;23.75;17.50;;;;;21.10;37.50;103627.59;5058733;28;51355;-42
2022/01/12 11:33:31;;;;;;;;;24.00;20.75;;;;;21.16;37.66;103624.22;5058297;28;51770;-47
2022/01/12 11:36:02;;;;;;;;;27.33;24.00;;;;;21.21;37.48;103629.22;5057239;28;50911;-41
2022/01/12 11:38:35;;;;;;;;;29.25;27.50;;;;;21.25;37.88;103628.72;5057488;28;51152;-45
2022/01/12 11:41:13;;;;;;;;;25.25;20.25;;;;;21.30;37.61;103626.41;5057511;28;51180;-45
2022/01/12 11:43:45;;;;;;;;;29.50;24.00;;;;;21.33;37.15;103617.81;5058464;28;50965;-45
2022/01/12 11:46:16;;;;;;;;;26.25;22.25;;;;;21.37;37.00;103614.75;5061407;28;51191;-41
2022/01/12 11:48:43;;;;;;;;;30.50;25.50;;;;;21.40;37.50;103611.66;5061358;28;51313;-42
2022/01/12 11:51:09;;;;;;;;;27.75;24.75;;;;;21.42;37.41;103607.69;5057269;28;51342;-45
2022/01/12 11:53:47;;;;;;;;;23.75;20.00;;;;;21.46;36.90;103614.59;5058197;28;51837;-46
2022/01/12 11:56:15;;;;;;;;;29.00;26.25;;;;;21.48;37.22;103604.31;5059337;28;51349;-44
2022/01/12 11:58:56;;;;;;;;;29.50;26.50;;;;;21.53;37.15;103606.56;5076162;27;50977;-47
2022/01/12 12:01:25;;;;;;;;;27.25;24.50;;;;;21.55;37.00;103602.59;5077301;28;51069;-47
2022/01/12 12:04:01;;;;;;;;;30.25;27.00;;;;;21.57;36.46;103599.66;5070923;27;51206;-46
2022/01/12 12:06:28;;;;;;;;;24.00;22.50;;;;;21.58;36.30;103601.44;5058009;28;51399;-40
2022/01/12 12:09:19;;;;;;;;;29.50;25.75;;;;;21.60;36.22;103599.38;5056816;28;51223;-41
2022/01/12 12:11:51;;;;;;;;;25.25;20.25;;;;;21.62;36.00;103597.31;5057066;28;51123;-44
2022/01/12 12:14:18;;;;;;;;;23.00;21.75;;;;;21.64;36.22;103606.28;5067312;28;51058;-44
2022/01/12 12:16:45;;;;;;;;;32.25;27.75;;;;;21.65;35.77;103599.72;5056356;28;51174;-41
2022/01/12 12:19:10;;;;;;;;;26.75;26.75;;;;;21.67;36.79;103599.56;5056438;28;51092;-41
2022/01/12 12:21:37;;;;;;;;;34.25;25.00;;;;;21.67;36.57;103591.28;5056744;28;51238;-43
2022/01/12 12:24:11;;;;;;;;;28.75;25.25;;;;;21.68;37.02;103593.03;5067098;28;51088;-47
2022/01/12 12:26:44;;;;;;;;;22.75;19.75;;;;;21.68;37.02;103576.50;5073887;27;51125;-41
2022/01/12 12:29:09;;;;;;;;;24.50;23.00;;;;;21.68;37.24;103587.53;5057693;28;51212;-48
2022/01/12 12:31:35;;;;;;;;;26.00;21.00;;;;;21.67;37.38;103589.38;5056877;28;51195;-43